Flight Track Log - Related Links

Times and Time Zones

All times are in EDT time to prevent confusion due to time zone crossing. See the RPA3381 flight status page for this flight to view local times or setup timezone preferences in your user account.

Time Position Orientation Groundspeed Altitude Reporting Facility
EDT Latitude Longitude Course Direction KTS MPH feet Rate Location/Type
Mon 06:20:30 PM 43.0919 -77.5675 191° South 263 303 4,500  Level Cleveland Center
Mon 06:21:39 PM 43.0225 -77.5981 198° South 264 304 8,700 3,573 Climbing Cleveland Center
Mon 06:22:00 PM 42.7479 -77.7411 192° South  Level FlightAware Approximate
Mon 06:22:41 PM 42.9503 -77.6292 198° South 270 311 12,300  Level Cleveland Center
Mon 06:23:00 PM 42.6567 -77.7680 192° South  Level FlightAware Approximate
Mon 06:23:43 PM 42.8656 -77.6475 189° South 312 359 15,000  Level Cleveland Center
Mon 06:24:00 PM 42.5655 -77.7954 192° South  Level FlightAware Approximate
Mon 06:24:45 PM 42.7544 -77.6458 179° South 333 383 16,000  Level Cleveland Center
Mon 06:25:00 PM 42.4736 -77.8160 191° South  Level FlightAware Approximate
Mon 06:25:47 PM 42.6653 -77.6342 175° South 337 388 17,900  Level Cleveland Center
Mon 06:26:48 PM 42.5675 -77.6006 166° South 356 410 20,700 2,537 Climbing Cleveland Center
Mon 06:27:50 PM 42.4697 -77.5850 173° South 361 415 23,100 2,371 Climbing Cleveland Center
Mon 06:28:52 PM 42.3806 -77.6694 215° Southwest 344 396 25,600 2,226 Climbing Cleveland Center
Mon 06:29:54 PM 42.3053 -77.7544 220° Southwest 347 399 27,700 1,839 Climbing Cleveland Center
Mon 06:30:56 PM 42.2297 -77.8400 220° Southwest 352 405 29,400 1,452 Climbing Cleveland Center
Mon 06:31:58 PM 42.1533 -77.9283 221° Southwest 360 414 30,700 774 Climbing Cleveland Center
Mon 06:33:00 PM 42.0753 -78.0203 221° Southwest 371 427 31,000 145 Climbing Cleveland Center
Mon 06:34:02 PM 42.0022 -78.1239 227° Southwest 380 437 31,000 244 Level Cleveland Center
Mon 06:35:03 PM 41.9183 -78.2386 226° Southwest 386 444 31,500 1,122 Climbing Cleveland Center
Mon 06:36:05 PM 41.8453 -78.3417 226° Southwest 386 444 33,300 1,210 Climbing Cleveland Center
Mon 06:37:07 PM 41.7739 -78.4383 225° Southwest 375 432 34,000 339 Climbing Cleveland Center
Mon 06:38:09 PM 41.6869 -78.5592 226° Southwest 376 433 34,000  Level Cleveland Center
Mon 06:39:11 PM 41.6150 -78.6583 226° Southwest 375 432 34,000  Level Cleveland Center
Mon 06:40:12 PM 41.5419 -78.7578 226° Southwest 378 435 34,000  Level Cleveland Center
Mon 06:41:14 PM 41.4692 -78.8569 226° Southwest 378 435 34,000  Level Cleveland Center
Mon 06:42:16 PM 41.3822 -78.9764 226° Southwest 380 437 34,000  Level Cleveland Center
Mon 06:43:18 PM 41.3083 -79.0767 226° Southwest 381 438 34,000  Level Cleveland Center
Mon 06:44:19 PM 41.2347 -79.1744 225° Southwest 381 438 34,000  Level Cleveland Center
Mon 06:45:21 PM 41.1622 -79.2725 226° Southwest 379 436 34,000  Level Cleveland Center
Mon 06:46:23 PM 41.0789 -79.3822 225° Southwest 383 441 34,000  Level Cleveland Center
Mon 06:47:25 PM 41.0056 -79.4814 226° Southwest 382 440 34,000  Level Cleveland Center
Mon 06:48:27 PM 40.9314 -79.5800 225° Southwest 381 438 34,000 98 Level Cleveland Center
Mon 06:49:28 PM 40.8578 -79.6786 225° Southwest 380 437 34,200 488 Climbing Cleveland Center
Mon 06:50:30 PM 40.7833 -79.7761 225° Southwest 378 435 35,000 871 Climbing Cleveland Center
Mon 06:51:32 PM 40.7108 -79.8736 226° Southwest 378 435 36,000 488 Climbing Cleveland Center
Mon 06:52:33 PM 40.6214 -79.9906 225° Southwest 378 435 36,000  Level Cleveland Center
Mon 06:53:35 PM 40.5456 -80.0917 225° Southwest 376 433 36,000  Level Cleveland Center
Mon 06:54:37 PM 40.4700 -80.1889 224° Southwest 378 435 36,000  Level Cleveland Center
Mon 06:55:38 PM 40.3950 -80.2853 224° Southwest 379 436 36,000  Level Cleveland Center
Mon 06:56:40 PM 40.3119 -80.3944 225° Southwest 384 442 36,000  Level Cleveland Center
Mon 06:57:42 PM 40.2372 -80.4900 224° Southwest 381 438 36,000  Level Cleveland Center
Mon 06:58:44 PM 40.1617 -80.5875 225° Southwest 381 438 36,000  Level Cleveland Center
Mon 06:59:45 PM 40.0861 -80.6842 224° Southwest 380 437 36,000 293 Level Cleveland Center
Mon 07:00:47 PM 40.0100 -80.7800 224° Southwest 381 438 36,600 484 Climbing Cleveland Center
Mon 07:01:49 PM 39.9336 -80.8789 225° Southwest 384 442 37,000 194 Climbing Cleveland Center
Mon 07:02:51 PM 39.8578 -80.9733 224° Southwest 380 437 37,000  Level Cleveland Center
Mon 07:03:52 PM 39.7644 -81.0922 224° Southwest 389 448 37,000  Level Cleveland Center
Mon 07:04:54 PM 39.6872 -81.1903 224° Southwest 389 448 37,000  Level Cleveland Center
Mon 07:05:56 PM 39.6097 -81.2881 224° Southwest 389 448 37,000  Level Cleveland Center
Mon 07:06:58 PM 39.5319 -81.3839 224° Southwest 389 448 37,000  Level Cleveland Center
Mon 07:08:00 PM 39.4444 -81.4942 224° Southwest 388 447 37,000  Level Cleveland Center
Mon 07:09:01 PM 39.3675 -81.5894 224° Southwest 387 445 37,000  Level Cleveland Center
Mon 07:10:03 PM 39.2892 -81.6872 224° Southwest 388 447 37,000  Level Cleveland Center
Mon 07:11:05 PM 39.2111 -81.7822 223° Southwest 387 445 37,000  Level Cleveland Center
Mon 07:12:07 PM 39.1328 -81.8786 224° Southwest 387 445 37,000  Level Cleveland Center
Mon 07:13:09 PM 39.0550 -81.9747 224° Southwest 388 447 37,000  Level Cleveland Center
Mon 07:14:10 PM 38.9772 -82.0697 224° Southwest 387 445 37,000  Level Cleveland Center
Mon 07:15:12 PM 38.8822 -82.1847 223° Southwest 388 447 37,000  Level Cleveland Center
Mon 07:16:14 PM 38.8047 -82.2806 224° Southwest 388 447 37,000  Level Cleveland Center
Mon 07:17:37 PM 38.6953 -82.4117 223° Southwest 390 449 37,000  Level Indianapolis Center
Mon 07:18:39 PM 38.6214 -82.5019 224° Southwest 391 450 37,000  Level Indianapolis Center
Mon 07:20:00 PM 38.5129 -82.6027 209° Southwest  Level FlightAware Approximate
Mon 07:20:42 PM 38.4236 -82.6661 209° Southwest 397 457 37,000  Level Indianapolis Center
Mon 07:21:43 PM 38.3281 -82.7369 210° Southwest 397 457 37,000  Level Indianapolis Center
Mon 07:22:45 PM 38.2319 -82.8069 210° Southwest 397 457 37,000 146 Level Indianapolis Center
Mon 07:23:46 PM 38.1353 -82.8769 210° Southwest 399 459 37,300 488 Climbing Indianapolis Center
Mon 07:24:48 PM 38.0383 -82.9467 210° Southwest 399 459 38,000 341 Climbing Indianapolis Center
Mon 07:25:49 PM 37.9411 -83.0192 210° Southwest 399 459 38,000  Level Indianapolis Center
Mon 07:26:50 PM 37.8269 -83.1008 209° Southwest 400 460 38,000  Level Indianapolis Center
Mon 07:27:52 PM 37.7297 -83.1706 210° Southwest 400 460 38,000  Level Indianapolis Center
Mon 07:28:53 PM 37.6322 -83.2386 207° Southwest 400 460 38,000  Level Indianapolis Center
Mon 07:29:00 PM 37.6277 -83.2376 207° Southwest  Level FlightAware Approximate
Mon 07:29:55 PM 37.5336 -83.3083 209° Southwest 403 464 38,000  Level Indianapolis Center
Mon 07:30:56 PM 37.4356 -83.3786 210° Southwest 404 465 38,000  Level Indianapolis Center
Mon 07:31:58 PM 37.3375 -83.4486 210° Southwest 404 465 38,000  Level Indianapolis Center
Mon 07:32:59 PM 37.2394 -83.5186 210° Southwest 405 466 38,000 -390 Level Indianapolis Center
Mon 07:34:01 PM 37.1247 -83.5997 209° Southwest 405 466 37,200 -878 Descending Indianapolis Center
Mon 07:35:02 PM 37.0250 -83.6703 209° Southwest 408 470 36,200 -976 Descending Indianapolis Center
Mon 07:36:04 PM 36.9242 -83.7389 209° Southwest 410 472 35,200 -1,024 Descending Indianapolis Center
Mon 07:37:05 PM 36.8231 -83.8100 209° Southwest 413 475 34,100 -1,220 Descending Indianapolis Center
Mon 07:38:07 PM 36.7186 -83.8819 209° Southwest 424 488 32,700 -1,463 Descending Indianapolis Center
Mon 07:39:08 PM 36.6136 -83.9542 209° Southwest 428 493 31,100 -1,561 Descending Indianapolis Center
Mon 07:40:10 PM 36.5128 -84.0317 212° Southwest 428 493 29,500 -1,512 Descending Indianapolis Center
Mon 07:41:11 PM 36.4414 -84.1483 233° Southwest 414 476 28,000 -732 Descending Indianapolis Center
Mon 07:42:13 PM 36.3700 -84.2542 230° Southwest 405 466 28,000 -488 Level Indianapolis Center
Mon 07:43:14 PM 36.2842 -84.3836 231° Southwest 405 466 27,000 -927 Descending Indianapolis Center
Mon 07:44:16 PM 36.2136 -84.4886 230° Southwest 401 461 26,100 -878 Descending Indianapolis Center
Mon 07:45:17 PM 36.1453 -84.5936 231° Southwest 397 457 25,200 -842 Descending Indianapolis Center
Mon 07:46:10 PM 36.0900 -84.6761 230° Southwest 398 458 24,500 -850 Descending Atlanta Center
Mon 07:47:10 PM 36.0206 -84.7781 230° Southwest 398 458 23,600 -900 Descending Atlanta Center
Mon 07:48:10 PM 35.9533 -84.8800 231° Southwest 398 458 22,700 -950 Descending Atlanta Center
Mon 07:49:10 PM 35.8772 -84.9947 231° Southwest 398 458 21,700 -916 Descending Atlanta Center
Mon 07:51:33 PM 35.7147 -85.2281 229° Southwest 380 437 19,600 -849 Descending Memphis Center
Mon 07:52:35 PM 35.6489 -85.3247 230° Southwest 375 432 18,800 -829 Descending Memphis Center
Mon 07:53:36 PM 35.5842 -85.4208 230° Southwest 371 427 17,900 -829 Descending Memphis Center
Mon 07:54:38 PM 35.5181 -85.5144 229° Southwest 367 422 17,100 -780 Descending Memphis Center
Mon 07:55:39 PM 35.4539 -85.6092 230° Southwest 363 418 16,300 -537 Descending Memphis Center
Mon 07:56:41 PM 35.3894 -85.7036 230° Southwest 363 418 16,000 -146 Descending Memphis Center
Mon 07:57:42 PM 35.3244 -85.7972 230° Southwest 363 418 16,000  Level Memphis Center
Mon 07:58:44 PM 35.2586 -85.8925 230° Southwest 363 418 16,000 -341 Level Memphis Center
Mon 07:59:45 PM 35.1933 -85.9869 230° Southwest 364 419 15,300 -878 Descending Memphis Center
Mon 08:00:47 PM 35.1144 -86.0994 229° Southwest 364 419 14,200 -1,415 Descending Memphis Center
Mon 08:01:48 PM 35.0456 -86.1797 224° Southwest 347 399 12,400 -2,049 Descending Memphis Center
Mon 08:02:50 PM 34.9964 -86.2611 234° Southwest 316 364 10,000 -2,683 Descending Memphis Center
Mon 08:03:51 PM 34.9469 -86.3311 229° Southwest 280 322 6,900 -2,852 Descending Memphis Center
Mon 08:04:52 PM 34.8978 -86.3967 228° Southwest 266 306 4,200 -1,415 Descending Memphis Center
Mon 08:05:54 PM 34.8633 -86.4778 243° Southwest 267 307 4,000 -98 Descending Memphis Center
Mon 08:06:55 PM 34.8289 -86.5558 242° Southwest 267 307 4,000 -390 Level Memphis Center
Mon 08:07:57 PM 34.7964 -86.6336 243° Southwest 265 305 3,200 -585 Descending Memphis Center
Mon 08:08:58 PM 34.7697 -86.7300 251° West 256 295 2,800 -639 Descending Memphis Center
Mon 08:09:59 PM 34.7194 -86.7819 220° Southwest 243 280 1,900 -829 Descending Memphis Center
Mon 08:11:01 PM 34.6781 -86.7828 181° South 182 209 1,100 -537 Descending Memphis Center
Mon 08:12:02 PM 34.6456 -86.7831 180° South 158 182 800 -295 Descending Memphis Center
Mon 08:14:00 PM 34.6372 -86.7751 231° Southwest  Level Estimated
Mon 08:21:00 PM 34.6372 -86.7751 231° Southwest  Level Estimated

Login

Don't have an account? Register now (free) for customized features, flight alerts, and more!